createdAt,value
2018-08-23T01:00:32.788Z,53.73
2018-08-23T01:01:32.720Z,53.63
2018-08-23T01:02:32.778Z,53.33
2018-08-23T01:03:32.698Z,53.44
2018-08-23T01:04:32.687Z,53.56
2018-08-23T01:05:32.679Z,53.96
2018-08-23T01:06:32.671Z,53.73
2018-08-23T01:07:32.700Z,53.83
2018-08-23T01:08:32.646Z,53.66
2018-08-23T01:09:32.638Z,54.33
2018-08-23T01:10:32.619Z,54.43
2018-08-23T01:11:32.613Z,54.23
2018-08-23T01:12:32.644Z,54.35
2018-08-23T01:13:32.589Z,53.44
2018-08-23T01:14:32.577Z,53.93
2018-08-23T01:15:32.573Z,54.06
2018-08-23T01:16:32.568Z,53.66
2018-08-23T01:17:32.592Z,53.66
2018-08-23T01:18:32.545Z,53.96
2018-08-23T01:19:32.523Z,54.46
2018-08-23T01:20:32.515Z,54.85
2018-08-23T01:21:32.501Z,55.35
2018-08-23T01:22:32.540Z,55.57
2018-08-23T01:23:32.478Z,55.25
2018-08-23T01:24:32.473Z,55.77
2018-08-23T01:25:32.459Z,55.77
2018-08-23T01:26:32.449Z,56.37
2018-08-23T01:27:32.481Z,56.17
2018-08-23T01:28:32.428Z,56.30
2018-08-23T01:29:32.414Z,56.79
2018-08-23T01:30:32.401Z,56.40
2018-08-23T01:31:32.398Z,56.20
2018-08-23T01:32:32.441Z,56.89
2018-08-23T01:33:32.372Z,57.09
2018-08-23T01:34:32.363Z,57.71
2018-08-23T01:35:32.349Z,57.71
2018-08-23T01:36:32.341Z,57.29
2018-08-23T01:37:32.376Z,57.62
2018-08-23T01:38:32.321Z,57.92
2018-08-23T01:39:32.306Z,58.41
2018-08-23T01:40:32.297Z,57.82
2018-08-23T01:41:32.296Z,57.71
2018-08-23T01:42:32.325Z,58.22
2018-08-23T01:43:32.262Z,58.01
2018-08-23T01:44:32.257Z,58.22
2018-08-23T01:45:32.240Z,58.22
2018-08-23T01:46:32.231Z,58.22
2018-08-23T01:47:32.265Z,58.31
2018-08-23T01:48:32.209Z,58.31
2018-08-23T01:49:32.210Z,58.54
2018-08-23T01:50:32.185Z,58.31
2018-08-23T01:51:32.177Z,58.41
2018-08-23T01:52:32.213Z,58.61
2018-08-23T01:53:32.152Z,58.11
2018-08-23T01:54:32.140Z,58.04
2018-08-23T01:55:32.135Z,58.14
2018-08-23T01:56:32.123Z,58.24
2018-08-23T01:57:32.155Z,58.54
2018-08-23T01:58:32.104Z,59.04
2018-08-23T01:59:32.088Z,58.04
2018-08-23T02:00:32.077Z,58.04
2018-08-23T02:01:32.072Z,58.84
2018-08-23T02:02:32.102Z,59.04
2018-08-23T02:03:32.094Z,59.64
2018-08-23T02:04:32.032Z,59.14
2018-08-23T02:05:32.035Z,59.17
2018-08-23T02:06:32.010Z,59.27
2018-08-23T02:07:32.007Z,58.97
2018-08-23T02:08:32.037Z,59.17
2018-08-23T02:09:31.978Z,58.97
2018-08-23T02:10:31.968Z,59.06
2018-08-23T02:11:31.956Z,58.76
2018-08-23T02:12:31.944Z,59.17
2018-08-23T02:13:31.981Z,59.27
2018-08-23T02:14:31.923Z,58.97
2018-08-23T02:15:31.912Z,59.17
2018-08-23T02:16:31.902Z,59.77
2018-08-23T02:17:31.889Z,59.59
2018-08-23T02:18:31.923Z,60.09
2018-08-23T02:19:31.870Z,59.99
2018-08-23T02:20:31.858Z,60.19
2018-08-23T02:21:31.857Z,60.19
2018-08-23T02:22:31.835Z,59.79
2018-08-23T02:23:31.879Z,59.69
2018-08-23T02:24:31.817Z,59.59
2018-08-23T02:25:31.801Z,59.82
2018-08-23T02:26:31.810Z,59.72
2018-08-23T02:27:31.787Z,59.39
2018-08-23T02:28:31.814Z,59.92
2018-08-23T02:29:31.758Z,59.22
2018-08-23T02:30:31.753Z,59.62
2018-08-23T02:31:31.745Z,59.92
2018-08-23T02:32:31.726Z,59.19
2018-08-23T02:33:31.758Z,58.70
2018-08-23T02:34:31.701Z,59.79
2018-08-23T02:35:31.691Z,58.89
2018-08-23T02:36:31.686Z,58.70
2018-08-23T02:37:31.673Z,59.49
2018-08-23T02:38:31.717Z,59.30
2018-08-23T02:39:31.648Z,59.69
2018-08-23T02:40:31.635Z,59.79
2018-08-23T02:41:31.632Z,59.00
2018-08-23T02:42:31.617Z,59.00
2018-08-23T02:43:31.666Z,58.70
2018-08-23T02:44:31.639Z,58.89
2018-08-23T02:45:31.582Z,59.00
2018-08-23T02:46:31.570Z,59.00
2018-08-23T02:47:31.574Z,58.70
2018-08-23T02:48:31.595Z,59.19
2018-08-23T02:49:31.538Z,59.00
2018-08-23T02:50:31.529Z,59.00
2018-08-23T02:51:31.518Z,59.30
2018-08-23T02:52:31.511Z,59.09
2018-08-23T02:53:31.548Z,59.12
2018-08-23T02:54:31.488Z,59.22
2018-08-23T02:55:31.472Z,59.32
2018-08-23T02:56:31.481Z,59.22
2018-08-23T02:57:31.450Z,59.09
2018-08-23T02:58:31.439Z,59.52
2018-08-23T02:59:31.475Z,60.12
2018-08-23T03:00:31.470Z,59.89
2018-08-23T03:01:31.404Z,60.12
2018-08-23T03:02:31.400Z,59.82
2018-08-23T03:03:31.383Z,59.69
2018-08-23T03:04:31.415Z,59.59
2018-08-23T03:05:31.367Z,59.69
2018-08-23T03:06:31.353Z,60.19
2018-08-23T03:07:31.350Z,59.79
2018-08-23T03:08:31.327Z,59.42
2018-08-23T03:09:31.363Z,59.69
2018-08-23T03:10:31.309Z,59.49
2018-08-23T03:11:31.311Z,59.79
2018-08-23T03:12:31.285Z,60.59
2018-08-23T03:13:31.276Z,60.39
2018-08-23T03:14:31.314Z,60.52
2018-08-23T03:15:31.251Z,60.92
2018-08-23T03:16:31.250Z,61.25
2018-08-23T03:17:31.230Z,61.25
2018-08-23T03:18:31.221Z,60.95
2018-08-23T03:19:31.269Z,60.85
2018-08-23T03:20:31.197Z,60.25
2018-08-23T03:21:31.186Z,60.55
2018-08-23T03:22:31.176Z,59.55
2018-08-23T03:23:31.163Z,60.35
2018-08-23T03:24:31.208Z,60.85
2018-08-23T03:25:31.146Z,60.55
2018-08-23T03:26:31.129Z,60.55
2018-08-23T03:27:31.122Z,60.25
2018-08-23T03:28:31.109Z,60.05
2018-08-23T03:29:31.144Z,60.65
2018-08-23T03:30:31.085Z,60.25
2018-08-23T03:31:31.078Z,60.35
2018-08-23T03:32:31.065Z,60.25
2018-08-23T03:33:31.060Z,60.55
2018-08-23T03:34:31.088Z,60.65
2018-08-23T03:35:31.030Z,60.45
2018-08-23T03:36:31.025Z,60.45
2018-08-23T03:37:31.007Z,61.05
2018-08-23T03:38:30.998Z,60.45
2018-08-23T03:39:31.038Z,60.15
2018-08-23T03:40:30.975Z,60.25
2018-08-23T03:41:30.967Z,60.85
2018-08-23T03:42:30.960Z,60.85
2018-08-23T03:43:30.942Z,61.05
2018-08-23T03:44:30.942Z,60.55
2018-08-23T03:45:30.970Z,60.75
2018-08-23T03:46:30.910Z,61.65
2018-08-23T03:47:30.897Z,61.44
2018-08-23T03:48:30.890Z,61.65
2018-08-23T03:49:30.880Z,61.74
2018-08-23T03:50:30.917Z,61.94
2018-08-23T03:51:30.855Z,62.18
2018-08-23T03:52:30.887Z,62.77
2018-08-23T03:53:30.836Z,62.37
2018-08-23T03:54:30.823Z,62.48
2018-08-23T03:55:30.860Z,62.18
2018-08-23T03:56:30.805Z,62.27
2018-08-23T03:57:30.790Z,61.98
2018-08-23T03:58:30.779Z,62.48
2018-08-23T03:59:30.768Z,61.98
2018-08-23T04:00:30.802Z,61.98
2018-08-23T04:01:30.766Z,62.70
2018-08-23T04:02:30.740Z,62.60
2018-08-23T04:03:30.724Z,62.48
2018-08-23T04:04:30.718Z,62.40
2018-08-23T04:05:30.747Z,62.30
2018-08-23T04:06:30.694Z,62.40
2018-08-23T04:07:30.692Z,62.20
2018-08-23T04:08:30.667Z,62.30
2018-08-23T04:09:30.657Z,62.20
2018-08-23T04:10:30.700Z,62.20
2018-08-23T04:11:30.641Z,62.81
2018-08-23T04:12:30.624Z,62.50
2018-08-23T04:13:30.617Z,62.40
2018-08-23T04:14:30.602Z,62.90
2018-08-23T04:15:30.714Z,62.20
2018-08-23T04:16:30.579Z,62.60
2018-08-23T04:17:30.578Z,62.67
2018-08-23T04:18:30.559Z,62.27
2018-08-23T04:19:30.560Z,62.07
2018-08-23T04:20:30.584Z,62.18
2018-08-23T04:21:30.525Z,62.07
2018-08-23T04:22:30.546Z,62.18
2018-08-23T04:23:30.504Z,61.98
2018-08-23T04:24:30.493Z,61.98
2018-08-23T04:25:30.531Z,62.18
2018-08-23T04:26:30.469Z,61.98
2018-08-23T04:27:30.460Z,62.27
2018-08-23T04:28:30.455Z,62.30
2018-08-23T04:29:30.441Z,62.20
2018-08-23T04:30:30.474Z,62.50
2018-08-23T04:31:30.415Z,62.40
2018-08-23T04:32:30.405Z,62.01
2018-08-23T04:33:30.395Z,62.01
2018-08-23T04:34:30.380Z,62.20
2018-08-23T04:35:30.423Z,62.70
2018-08-23T04:36:30.360Z,62.01
2018-08-23T04:37:30.355Z,62.10
2018-08-23T04:38:30.340Z,62.57
2018-08-23T04:39:30.385Z,62.10
2018-08-23T04:40:30.356Z,63.00
2018-08-23T04:41:30.357Z,63.20
2018-08-23T04:42:30.301Z,63.20
2018-08-23T04:43:30.282Z,63.90
2018-08-23T04:44:30.279Z,63.70
2018-08-23T04:45:30.262Z,64.00
2018-08-23T04:46:30.295Z,64.00
2018-08-23T04:47:30.246Z,63.90
2018-08-23T04:48:30.234Z,63.90
2018-08-23T04:49:30.218Z,64.20
2018-08-23T04:50:30.206Z,64.10
2018-08-23T04:51:30.239Z,64.10
2018-08-23T04:52:30.184Z,64.00
2018-08-23T04:53:30.181Z,64.10
2018-08-23T04:54:30.165Z,63.80
2018-08-23T04:55:30.154Z,63.70
2018-08-23T04:56:30.189Z,63.93
2018-08-23T04:57:30.131Z,64.00
2018-08-23T04:58:30.119Z,64.03
2018-08-23T04:59:30.116Z,64.63
2018-08-23T05:00:30.107Z,64.13
2018-08-23T05:01:30.144Z,64.43
2018-08-23T05:02:30.079Z,63.93
2018-08-23T05:03:30.063Z,64.30
2018-08-23T05:04:30.052Z,64.33
2018-08-23T05:05:30.044Z,64.23
2018-08-23T05:06:30.086Z,64.50
2018-08-23T05:07:30.024Z,64.40
2018-08-23T05:08:30.016Z,64.40
2018-08-23T05:09:30.005Z,64.80
2018-08-23T05:10:29.992Z,64.90
2018-08-23T05:11:30.027Z,64.53
2018-08-23T05:12:29.971Z,64.73
2018-08-23T05:13:29.956Z,64.73
2018-08-23T05:14:29.950Z,65.33
2018-08-23T05:15:29.932Z,65.43
2018-08-23T05:16:29.970Z,65.33
2018-08-23T05:17:29.914Z,65.13
2018-08-23T05:18:29.899Z,64.53
2018-08-23T05:19:29.888Z,65.03
2018-08-23T05:20:29.879Z,64.80
2018-08-23T05:21:29.912Z,64.80
2018-08-23T05:22:29.853Z,64.70
2018-08-23T05:23:29.843Z,64.60
2018-08-23T05:24:29.838Z,64.70
2018-08-23T05:25:29.822Z,64.27
2018-08-23T05:26:29.857Z,63.97
2018-08-23T05:27:29.801Z,64.67
2018-08-23T05:28:29.789Z,63.77
2018-08-23T05:29:29.779Z,63.77
2018-08-23T05:30:29.765Z,63.67
2018-08-23T05:31:29.818Z,63.24
2018-08-23T05:32:29.746Z,62.64
2018-08-23T05:33:29.747Z,63.37
2018-08-23T05:34:29.731Z,63.27
2018-08-23T05:35:29.711Z,63.27
2018-08-23T05:36:29.752Z,63.27
2018-08-23T05:37:29.691Z,63.07
2018-08-23T05:38:29.680Z,63.17
2018-08-23T05:39:29.670Z,62.97
2018-08-23T05:40:29.669Z,62.67
2018-08-23T05:41:29.696Z,62.37
2018-08-23T05:42:29.634Z,62.27
2018-08-23T05:43:29.625Z,62.48
2018-08-23T05:44:29.617Z,62.48
2018-08-23T05:45:29.609Z,62.60
2018-08-23T05:46:29.597Z,62.60
2018-08-23T05:47:29.627Z,62.20
2018-08-23T05:48:29.569Z,62.37
2018-08-23T05:49:29.586Z,62.87
2018-08-23T05:50:29.546Z,62.27
2018-08-23T05:51:29.538Z,62.48
2018-08-23T05:52:29.575Z,62.48
2018-08-23T05:53:29.516Z,62.37
2018-08-23T05:54:29.507Z,61.98
2018-08-23T05:55:29.501Z,61.98
2018-08-23T05:56:29.480Z,62.57
2018-08-23T05:57:29.529Z,62.07
2018-08-23T05:58:29.459Z,62.18
2018-08-23T05:59:29.447Z,62.15
2018-08-23T06:00:29.439Z,61.94
2018-08-23T06:01:29.425Z,61.52
2018-08-23T06:02:29.466Z,60.89
2018-08-23T06:03:29.407Z,60.29
2018-08-23T06:04:29.392Z,59.99
2018-08-23T06:05:29.383Z,60.29
2018-08-23T06:06:29.386Z,60.19
2018-08-23T06:07:29.407Z,60.59
2018-08-23T06:08:29.350Z,60.02
2018-08-23T06:09:29.348Z,60.39
2018-08-23T06:10:29.326Z,60.52
2018-08-23T06:11:29.318Z,60.12
2018-08-23T06:12:29.350Z,60.32
2018-08-23T06:13:29.298Z,60.42
2018-08-23T06:14:29.283Z,60.32
2018-08-23T06:15:29.293Z,60.32
2018-08-23T06:16:29.260Z,59.69
2018-08-23T06:17:29.299Z,59.44
2018-08-23T06:18:29.238Z,58.71
2018-08-23T06:19:29.250Z,57.02
2018-08-23T06:20:29.219Z,57.66
2018-08-23T06:21:29.209Z,57.17
2018-08-23T06:22:29.251Z,57.56
2018-08-23T06:23:29.184Z,57.14
2018-08-23T06:24:29.171Z,56.32
2018-08-23T06:25:29.166Z,56.51
2018-08-23T06:26:29.167Z,56.12
2018-08-23T06:27:29.188Z,56.41
2018-08-23T06:28:29.174Z,56.84
2018-08-23T06:29:29.118Z,57.73
2018-08-23T06:30:29.106Z,57.31
2018-08-23T06:31:29.099Z,56.14
2018-08-23T06:32:29.090Z,56.21
2018-08-23T06:33:29.296Z,56.41
2018-08-23T06:34:29.065Z,56.21
2018-08-23T06:35:29.056Z,56.14
2018-08-23T06:36:29.045Z,57.53
2018-08-23T06:37:29.079Z,57.46
2018-08-23T06:38:29.126Z,57.86
2018-08-23T06:39:29.010Z,57.53
2018-08-23T06:40:28.996Z,57.43
2018-08-23T06:41:28.990Z,57.53
2018-08-23T06:42:28.976Z,57.83
2018-08-23T06:43:29.011Z,57.83
2018-08-23T06:44:28.987Z,57.76
2018-08-23T06:45:28.949Z,57.86
2018-08-23T06:46:28.934Z,57.66
2018-08-23T06:47:28.974Z,57.24
2018-08-23T06:48:29.006Z,56.12
2018-08-23T06:49:29.010Z,56.02
2018-08-23T06:50:28.890Z,55.79
2018-08-23T06:51:28.956Z,55.29
2018-08-23T06:52:28.871Z,55.00
2018-08-23T06:53:28.920Z,55.29
2018-08-23T06:54:28.845Z,55.07
2018-08-23T06:55:28.837Z,54.60
2018-08-23T06:56:28.824Z,55.29
2018-08-23T06:57:28.852Z,55.29
2018-08-23T06:58:28.851Z,55.19
2018-08-23T06:59:28.882Z,55.32
2018-08-23T07:00:28.879Z,55.19
2018-08-23T07:01:28.883Z,54.60
2018-08-23T07:02:28.771Z,54.80
2018-08-23T07:03:28.793Z,54.10
2018-08-23T07:04:28.735Z,54.60
2018-08-23T07:05:28.737Z,54.17
2018-08-23T07:06:28.717Z,53.36
2018-08-23T07:07:28.704Z,54.08
2018-08-23T07:08:28.733Z,54.00
2018-08-23T07:09:28.715Z,53.91
2018-08-23T07:10:28.747Z,54.90
2018-08-23T07:11:28.655Z,54.70
2018-08-23T07:12:28.651Z,54.80
2018-08-23T07:13:28.689Z,54.30
2018-08-23T07:14:28.625Z,54.47
2018-08-23T07:15:28.612Z,54.30
2018-08-23T07:16:28.613Z,54.60
2018-08-23T07:17:28.627Z,54.90
2018-08-23T07:18:28.633Z,55.19
2018-08-23T07:19:28.568Z,55.19
2018-08-23T07:20:28.555Z,55.79
2018-08-23T07:21:28.544Z,56.21
2018-08-23T07:22:28.533Z,56.32
2018-08-23T07:23:28.568Z,56.32
2018-08-23T07:24:28.512Z,55.91
2018-08-23T07:25:28.533Z,55.42
2018-08-23T07:26:28.491Z,55.52
2018-08-23T07:27:28.478Z,54.60
2018-08-23T07:28:28.528Z,54.80
2018-08-23T07:29:28.487Z,54.57
2018-08-23T07:30:28.453Z,54.08
2018-08-23T07:31:28.436Z,53.88
2018-08-23T07:32:28.429Z,53.56
2018-08-23T07:33:28.430Z,53.48
2018-08-23T07:34:28.447Z,53.58
2018-08-23T07:35:28.395Z,53.36
2018-08-23T07:36:28.385Z,53.56
2018-08-23T07:37:28.371Z,53.75
2018-08-23T07:38:28.357Z,53.56
2018-08-23T07:39:28.389Z,53.26
2018-08-23T07:40:28.332Z,53.66
2018-08-23T07:41:28.322Z,53.78
2018-08-23T07:42:28.316Z,54.28
2018-08-23T07:43:28.299Z,54.28
2018-08-23T07:44:28.333Z,53.48
2018-08-23T07:45:28.277Z,53.48
2018-08-23T07:46:28.269Z,53.78
2018-08-23T07:47:28.263Z,53.98
2018-08-23T07:48:28.276Z,53.68
2018-08-23T07:49:28.291Z,53.88
2018-08-23T07:50:28.227Z,54.25
2018-08-23T07:51:28.211Z,53.96
2018-08-23T07:52:28.250Z,53.75
2018-08-23T07:53:28.366Z,53.85
2018-08-23T07:54:28.230Z,53.96
2018-08-23T07:55:28.190Z,53.75
2018-08-23T07:56:28.161Z,54.08
2018-08-23T07:57:28.170Z,53.56
2018-08-23T07:58:28.138Z,53.36
2018-08-23T07:59:28.172Z,54.35
2018-08-23T08:00:28.127Z,53.58
2018-08-23T08:01:28.102Z,53.85
2018-08-23T08:02:28.096Z,53.66
2018-08-23T08:03:28.084Z,53.78
2018-08-23T08:04:28.116Z,53.66
2018-08-23T08:05:28.072Z,53.66
2018-08-23T08:06:28.063Z,53.45
2018-08-23T08:07:28.037Z,53.36
2018-08-23T08:08:28.041Z,53.13
2018-08-23T08:09:28.086Z,52.84
2018-08-23T08:10:28.003Z,52.94
2018-08-23T08:11:28.008Z,53.03
2018-08-23T08:12:27.982Z,52.94
2018-08-23T08:13:27.972Z,53.03
2018-08-23T08:14:28.017Z,52.61
2018-08-23T08:15:27.959Z,52.73
2018-08-23T08:16:27.940Z,53.31
2018-08-23T08:17:27.934Z,52.81
2018-08-23T08:18:27.925Z,52.61
2018-08-23T08:19:27.969Z,53.11
2018-08-23T08:20:27.901Z,53.50
2018-08-23T08:21:27.914Z,53.53
2018-08-23T08:22:27.875Z,53.92
2018-08-23T08:23:27.867Z,53.43
2018-08-23T08:24:27.895Z,53.73
2018-08-23T08:25:27.865Z,53.63
2018-08-23T08:26:27.836Z,54.02
2018-08-23T08:27:27.818Z,54.13
2018-08-23T08:28:27.842Z,54.02
2018-08-23T08:29:27.849Z,53.53
2018-08-23T08:30:27.786Z,54.32
2018-08-23T08:31:27.774Z,53.63
2018-08-23T08:32:27.784Z,53.83
2018-08-23T08:33:27.754Z,53.63
2018-08-23T08:34:27.800Z,53.23
2018-08-23T08:35:27.742Z,52.94
2018-08-23T08:36:27.719Z,53.13
2018-08-23T08:37:27.715Z,53.85
2018-08-23T08:38:27.699Z,53.53
2018-08-23T08:39:27.734Z,53.85
2018-08-23T08:40:27.681Z,53.68
2018-08-23T08:41:27.671Z,53.98
2018-08-23T08:42:27.654Z,53.98
2018-08-23T08:43:27.651Z,53.78
2018-08-23T08:44:27.686Z,53.58
2018-08-23T08:45:27.621Z,53.26
2018-08-23T08:46:27.613Z,53.26
2018-08-23T08:47:27.604Z,52.64
2018-08-23T08:48:27.628Z,52.54
2018-08-23T08:49:27.632Z,52.24
2018-08-23T08:50:27.620Z,52.84
2018-08-23T08:51:27.558Z,52.31
2018-08-23T08:52:27.546Z,52.12
2018-08-23T08:53:27.534Z,51.82
2018-08-23T08:54:27.530Z,52.02
2018-08-23T08:55:27.567Z,51.79
2018-08-23T08:56:27.513Z,51.89
2018-08-23T08:57:27.492Z,52.09
2018-08-23T08:58:27.483Z,51.47
2018-08-23T08:59:27.471Z,51.07
2018-08-23T09:00:27.507Z,50.48
2018-08-23T09:01:27.451Z,50.78
2018-08-23T09:02:27.437Z,50.58
2018-08-23T09:03:27.434Z,50.95
2018-08-23T09:04:27.418Z,50.95
2018-08-23T09:05:27.457Z,50.16
2018-08-23T09:06:27.412Z,49.96
2018-08-23T09:07:27.383Z,49.87
2018-08-23T09:08:27.374Z,50.36
2018-08-23T09:09:27.362Z,50.85
2018-08-23T09:10:27.399Z,50.56
2018-08-23T09:11:27.341Z,49.96
2018-08-23T09:12:27.330Z,50.76
2018-08-23T09:13:27.320Z,50.29
2018-08-23T09:14:27.309Z,50.78
2018-08-23T09:15:27.343Z,50.06
2018-08-23T09:16:27.288Z,50.26
2018-08-23T09:17:27.352Z,50.26
2018-08-23T09:18:27.264Z,50.26
2018-08-23T09:19:27.253Z,50.04
2018-08-23T09:20:27.353Z,49.94
2018-08-23T09:21:27.232Z,50.04
2018-08-23T09:22:27.225Z,48.83
2018-08-23T09:23:27.208Z,48.93
2018-08-23T09:24:27.202Z,49.32
2018-08-23T09:25:27.472Z,49.02
2018-08-23T09:26:27.177Z,48.71
2018-08-23T09:27:27.171Z,48.51
2018-08-23T09:28:27.160Z,47.99
2018-08-23T09:29:27.146Z,47.79
2018-08-23T09:30:27.184Z,47.20
2018-08-23T09:31:27.128Z,47.60
2018-08-23T09:32:27.112Z,47.50
2018-08-23T09:33:27.103Z,47.47
2018-08-23T09:34:27.105Z,47.28
2018-08-23T09:35:27.124Z,46.86
2018-08-23T09:36:27.071Z,47.18
2018-08-23T09:37:27.080Z,47.18
2018-08-23T09:38:27.056Z,47.18
2018-08-23T09:39:27.043Z,47.25
2018-08-23T09:40:27.070Z,46.94
2018-08-23T09:41:27.016Z,46.64
2018-08-23T09:42:27.005Z,46.15
2018-08-23T09:43:26.995Z,46.54
2018-08-23T09:44:26.990Z,46.52
2018-08-23T09:45:27.023Z,45.83
2018-08-23T09:46:26.967Z,46.03
2018-08-23T09:47:26.950Z,45.63
2018-08-23T09:48:26.945Z,46.64
2018-08-23T09:49:26.929Z,46.64
2018-08-23T09:50:26.964Z,46.25
2018-08-23T09:51:26.917Z,46.15
2018-08-23T09:52:27.008Z,46.15
2018-08-23T09:53:26.887Z,46.56
2018-08-23T09:54:26.876Z,46.76
2018-08-23T09:55:26.924Z,47.16
2018-08-23T09:56:26.898Z,47.08
2018-08-23T09:57:26.841Z,47.08
2018-08-23T09:58:26.830Z,46.76
2018-08-23T09:59:26.821Z,47.35
2018-08-23T10:00:26.863Z,46.76
2018-08-23T10:01:26.821Z,46.66
2018-08-23T10:02:26.788Z,46.66
2018-08-23T10:03:26.780Z,47.35
2018-08-23T10:04:26.873Z,46.66
2018-08-23T10:05:26.804Z,46.86
2018-08-23T10:06:26.745Z,47.47
2018-08-23T10:07:26.735Z,46.96
2018-08-23T10:08:26.724Z,47.18
2018-08-23T10:09:26.720Z,46.96
2018-08-23T10:10:26.761Z,47.08
2018-08-23T10:11:26.772Z,47.16
2018-08-23T10:12:26.681Z,47.25
2018-08-23T10:13:26.669Z,47.16
2018-08-23T10:14:26.664Z,46.88
2018-08-23T10:15:26.647Z,46.56
2018-08-23T10:16:26.681Z,46.86
2018-08-23T10:17:26.629Z,46.76
2018-08-23T10:18:26.617Z,46.74
2018-08-23T10:19:26.605Z,45.95
2018-08-23T10:20:26.598Z,45.14
2018-08-23T10:21:26.630Z,44.45
2018-08-23T10:22:26.571Z,44.82
2018-08-23T10:23:26.562Z,43.93
2018-08-23T10:24:26.552Z,42.85
2018-08-23T10:25:26.541Z,43.05
2018-08-23T10:26:26.589Z,43.24
2018-08-23T10:27:26.519Z,42.83
2018-08-23T10:28:26.512Z,43.42
2018-08-23T10:29:26.496Z,42.93
2018-08-23T10:30:26.489Z,43.23
2018-08-23T10:31:26.522Z,42.54
2018-08-23T10:32:26.476Z,42.41
2018-08-23T10:33:26.456Z,42.02
2018-08-23T10:34:26.446Z,41.83
2018-08-23T10:35:26.437Z,40.86
2018-08-23T10:36:26.473Z,40.64
2018-08-23T10:37:26.410Z,40.94
2018-08-23T10:38:26.424Z,40.94
2018-08-23T10:39:26.388Z,40.23
2018-08-23T10:40:26.383Z,40.43
2018-08-23T10:41:26.414Z,39.64
2018-08-23T10:42:26.356Z,39.82
2018-08-23T10:43:26.368Z,39.90
2018-08-23T10:44:26.349Z,39.40
2018-08-23T10:45:26.324Z,38.52
2018-08-23T10:46:26.360Z,37.74
2018-08-23T10:47:26.304Z,38.05
2018-08-23T10:48:26.315Z,38.76
2018-08-23T10:49:26.285Z,38.66
2018-08-23T10:50:26.270Z,38.56
2018-08-23T10:51:26.306Z,38.85
2018-08-23T10:52:26.251Z,39.15
2018-08-23T10:53:26.236Z,39.15
2018-08-23T10:54:26.231Z,39.44
2018-08-23T10:55:26.224Z,39.15
2018-08-23T10:56:26.252Z,39.84
2018-08-23T10:57:26.197Z,39.44
2018-08-23T10:58:26.193Z,39.42
2018-08-23T10:59:26.176Z,38.01
2018-08-23T11:00:26.194Z,37.80
2018-08-23T11:01:26.206Z,38.32
2018-08-23T11:02:26.158Z,38.03
2018-08-23T11:03:26.139Z,38.52
2018-08-23T11:04:26.125Z,38.92
2018-08-23T11:05:26.109Z,38.64
2018-08-23T11:06:26.169Z,38.82
2018-08-23T11:07:26.087Z,38.82
2018-08-23T11:08:26.095Z,38.42
2018-08-23T11:09:26.066Z,37.84
2018-08-23T11:10:26.057Z,38.23
2018-08-23T11:11:26.046Z,38.32
2018-08-23T11:12:26.080Z,38.05
2018-08-23T11:13:26.078Z,38.05
2018-08-23T11:14:26.018Z,38.03
2018-08-23T11:15:26.004Z,37.54
2018-08-23T11:16:25.991Z,38.24
2018-08-23T11:17:26.028Z,38.24
2018-08-23T11:18:25.976Z,38.03
2018-08-23T11:19:25.962Z,37.93
2018-08-23T11:20:25.952Z,38.82
2018-08-23T11:21:25.939Z,38.32
2018-08-23T11:22:25.972Z,38.13
2018-08-23T11:23:25.917Z,38.13
2018-08-23T11:24:25.908Z,37.82
2018-08-23T11:25:25.900Z,38.32
2018-08-23T11:26:25.889Z,38.32
2018-08-23T11:27:25.924Z,38.01
2018-08-23T11:28:25.869Z,37.72
2018-08-23T11:29:25.927Z,37.82
2018-08-23T11:30:25.842Z,38.82
2018-08-23T11:31:25.832Z,38.03
2018-08-23T11:32:25.870Z,38.03
2018-08-23T11:33:25.826Z,38.01
2018-08-23T11:34:25.806Z,38.31
2018-08-23T11:35:25.788Z,37.82
2018-08-23T11:36:25.801Z,37.62
2018-08-23T11:37:25.822Z,38.01
2018-08-23T11:38:25.786Z,38.70
2018-08-23T11:39:25.744Z,38.31
2018-08-23T11:40:25.744Z,38.11
2018-08-23T11:41:25.728Z,37.72
2018-08-23T11:42:25.760Z,38.17
2018-08-23T11:43:25.704Z,38.17
2018-08-23T11:44:25.697Z,38.17
2018-08-23T11:45:25.682Z,37.88
2018-08-23T11:46:25.674Z,36.99
2018-08-23T11:47:25.712Z,37.07
2018-08-23T11:48:25.654Z,36.86
2018-08-23T11:49:25.641Z,37.05
2018-08-23T11:50:25.636Z,37.25
2018-08-23T11:51:25.619Z,37.35
2018-08-23T11:52:25.654Z,37.46
2018-08-23T11:53:25.903Z,36.88
2018-08-23T11:54:25.587Z,37.45
2018-08-23T11:55:25.578Z,37.25
2018-08-23T11:56:25.582Z,36.57
2018-08-23T11:57:25.614Z,37.05
2018-08-23T11:58:25.547Z,37.15
2018-08-23T11:59:25.550Z,37.04
2018-08-23T12:00:25.530Z,36.63
2018-08-23T12:01:25.514Z,36.53
2018-08-23T12:02:25.553Z,36.32
2018-08-23T12:03:25.491Z,36.00
2018-08-23T12:04:25.485Z,36.00
2018-08-23T12:05:25.473Z,35.44
2018-08-23T12:06:25.530Z,36.33
2018-08-23T12:07:25.498Z,35.65
2018-08-23T12:08:25.441Z,35.66
2018-08-23T12:09:25.442Z,35.68
2018-08-23T12:10:25.421Z,36.08
2018-08-23T12:11:25.412Z,35.88
2018-08-23T12:12:25.443Z,36.08
2018-08-23T12:13:25.386Z,34.61
2018-08-23T12:14:25.385Z,34.69
2018-08-23T12:15:25.374Z,34.78
2018-08-23T12:16:25.355Z,34.67
2018-08-23T12:17:25.395Z,33.25
2018-08-23T12:18:25.334Z,32.34
2018-08-23T12:19:25.321Z,31.92
2018-08-23T12:20:25.320Z,30.71
2018-08-23T12:21:25.304Z,30.00
2018-08-23T12:22:25.291Z,30.26
2018-08-23T12:23:25.334Z,29.19
2018-08-23T12:24:25.271Z,30.07
2018-08-23T12:25:25.262Z,30.36
2018-08-23T12:26:25.253Z,30.07
2018-08-23T12:27:25.242Z,30.55
2018-08-23T12:28:25.281Z,30.44
2018-08-23T12:29:25.220Z,29.14
2018-08-23T12:30:25.209Z,29.82
2018-08-23T12:31:25.202Z,29.24
2018-08-23T12:32:25.193Z,27.76
2018-08-23T12:33:25.231Z,29.11
2018-08-23T12:34:25.172Z,28.03
2018-08-23T12:35:25.172Z,28.04
2018-08-23T12:36:25.149Z,27.83
2018-08-23T12:37:25.140Z,27.82
2018-08-23T12:38:25.176Z,27.24
2018-08-23T12:39:25.125Z,27.43
2018-08-23T12:40:25.112Z,27.14
2018-08-23T12:41:25.109Z,27.57
2018-08-23T12:42:25.091Z,28.36
2018-08-23T12:43:25.144Z,28.05
2018-08-23T12:44:25.077Z,27.66
2018-08-23T12:45:25.060Z,28.40
2018-08-23T12:46:25.060Z,27.42
2018-08-23T12:47:25.041Z,27.92
2018-08-23T12:48:25.076Z,27.43
2018-08-23T12:49:25.061Z,27.73
2018-08-23T12:50:25.018Z,27.76
2018-08-23T12:51:25.000Z,29.55
2018-08-23T12:52:24.990Z,30.00
2018-08-23T12:53:25.139Z,31.10
2018-08-23T12:54:24.973Z,31.80
2018-08-23T12:55:24.959Z,31.70
2018-08-23T12:56:25.005Z,31.70
2018-08-23T12:57:24.939Z,32.50
2018-08-23T12:58:24.975Z,32.31
2018-08-23T12:59:24.935Z,32.52
2018-08-23T13:00:24.912Z,32.42
2018-08-23T13:01:24.925Z,32.73
2018-08-23T13:02:24.975Z,32.73
2018-08-23T13:03:24.937Z,33.53
2018-08-23T13:04:24.924Z,32.86
2018-08-23T13:05:24.857Z,33.25
2018-08-23T13:06:24.879Z,33.15
2018-08-23T13:07:24.835Z,33.85
2018-08-23T13:08:24.962Z,35.04
2018-08-23T13:09:24.815Z,34.26
2018-08-23T13:10:24.809Z,34.54
2018-08-23T13:11:24.797Z,34.84
2018-08-23T13:12:24.781Z,34.84
2018-08-23T13:13:24.819Z,34.94
2018-08-23T13:14:24.799Z,34.84
2018-08-23T13:15:24.751Z,34.18
2018-08-23T13:16:24.743Z,34.55
2018-08-23T13:17:24.756Z,34.55
2018-08-23T13:18:24.775Z,34.57
2018-08-23T13:19:24.711Z,34.08
2018-08-23T13:20:24.700Z,35.25
2018-08-23T13:21:24.690Z,34.38
2018-08-23T13:22:24.679Z,34.57
2018-08-23T13:23:24.713Z,35.04
2018-08-23T13:24:24.661Z,34.65
2018-08-23T13:25:24.652Z,34.94
2018-08-23T13:26:24.647Z,34.55
2018-08-23T13:27:24.689Z,34.45
2018-08-23T13:28:24.661Z,34.28
2018-08-23T13:29:24.609Z,33.98
2018-08-23T13:30:24.607Z,34.08
2018-08-23T13:31:24.585Z,33.89
2018-08-23T13:32:24.574Z,34.38
2018-08-23T13:33:24.619Z,34.49
2018-08-23T13:34:24.552Z,34.49
2018-08-23T13:35:24.556Z,34.69
2018-08-23T13:36:24.641Z,34.49
2018-08-23T13:37:24.521Z,34.10
2018-08-23T13:38:24.563Z,34.30
2018-08-23T13:39:24.507Z,34.59
2018-08-23T13:40:24.490Z,34.39
2018-08-23T13:41:24.482Z,34.39
2018-08-23T13:42:24.465Z,34.61
2018-08-23T13:43:24.519Z,34.61
2018-08-23T13:44:24.448Z,34.61
2018-08-23T13:45:24.469Z,34.21
2018-08-23T13:46:24.423Z,34.70
2018-08-23T13:47:24.411Z,34.01
2018-08-23T13:48:24.478Z,34.70
2018-08-23T13:49:24.436Z,34.31
2018-08-23T13:50:24.380Z,35.02
2018-08-23T13:51:24.373Z,34.81
2018-08-23T13:52:24.360Z,34.81